Oil Finn — OJ9326 — position and weather

sailwx.info

Track history (hours):
 
Tides and Currents Weather Stations Pressure Air Temp Water Temp Dewpoint Dewpoint Depression Visibility Wind Speed Wind Dir Waves Ship Positions

Oil Finn

Last reported at 2016-Apr-22 05:33 UTC. Time now 2016-Apr-29 10:11 UTC.
Position N 60°15' E 026°02'.

Length 20 m; draft 2 m.

Type: Tanker. MMSI: 230033790.

Date/timePositionNaut miles runAvg speedWind from/ knotsBaromVisibWave heightAir tempDewpointWater temp
2016-Apr-22 05:33N 60°15' E 026°02'7 7.0
2016-Apr-22 04:33N 60°17' E 026°16'7 7.1
2016-Apr-22 03:33N 60°20' E 026°29'1 0.0
2016-Apr-21 14:33N 60°20' E 026°30'5 4.7
2016-Apr-21 13:33N 60°20' E 026°39'4 4.0
2016-Apr-21 12:33N 60°21' E 026°47'7 6.8
2016-Apr-21 11:33N 60°20' E 027°01'6 5.6
2016-Apr-21 10:30N 60°17' E 027°11'0 0.1
2016-Apr-21 08:10N 60°17' E 027°12'3 4.5
2016-Apr-21 07:33N 60°20' E 027°08'6 6.5
2016-Apr-21 06:33N 60°20' E 026°55'6 6.4
2016-Apr-21 05:33N 60°20' E 026°42'7 6.6
2016-Apr-21 04:33N 60°18' E 026°30'2 0.2
2016-Apr-20 15:22N 60°17' E 026°27'4 5.1
2016-Apr-20 14:34N 60°17' E 026°19'  
Track history (hours):
 
Tides and Currents Weather Stations Pressure Air Temp Water Temp Dewpoint Dewpoint Depression Visibility Wind Speed Wind Dir Waves Ship Positions

Oil Finn

Last reported at 2016-Apr-22 05:33 UTC. Time now 2016-Apr-29 10:11 UTC.
Position N 60°15' E 026°02'.

Length 20 m; draft 2 m.

Type: Tanker. MMSI: 230033790.

Date/timePositionNaut miles runAvg speedWind from/ knotsBaromVisibWave heightAir tempDewpointWater temp
2016-Apr-22 05:33N 60°15' E 026°02'7 7.0
2016-Apr-22 04:33N 60°17' E 026°16'7 7.1
2016-Apr-22 03:33N 60°20' E 026°29'1 0.0
2016-Apr-21 14:33N 60°20' E 026°30'5 4.7
2016-Apr-21 13:33N 60°20' E 026°39'4 4.0
2016-Apr-21 12:33N 60°21' E 026°47'7 6.8
2016-Apr-21 11:33N 60°20' E 027°01'6 5.6
2016-Apr-21 10:30N 60°17' E 027°11'0 0.1
2016-Apr-21 08:10N 60°17' E 027°12'3 4.5
2016-Apr-21 07:33N 60°20' E 027°08'6 6.5
2016-Apr-21 06:33N 60°20' E 026°55'6 6.4
2016-Apr-21 05:33N 60°20' E 026°42'7 6.6
2016-Apr-21 04:33N 60°18' E 026°30'2 0.2
2016-Apr-20 15:22N 60°17' E 026°27'4 5.1
2016-Apr-20 14:34N 60°17' E 026°19'  

Dump ship's entire track history